sensor_id;sensor_type;location;lat;lon;timestamp;pressure;altitude;pressure_sealevel;temperature;humidity
19811;BME280;10065;49.632;8.346;2023-03-22T00:00:56;100383.59;;;12.48;71.96
19811;BME280;10065;49.632;8.346;2023-03-22T00:03:23;100378.94;;;12.58;71.13
19811;BME280;10065;49.632;8.346;2023-03-22T00:05:56;100379.94;;;12.49;70.58
19811;BME280;10065;49.632;8.346;2023-03-22T00:08:24;100375.59;;;12.39;71.31
19811;BME280;10065;49.632;8.346;2023-03-22T00:10:52;100376.59;;;12.47;71.12
19811;BME280;10065;49.632;8.346;2023-03-22T00:13:20;100365.28;;;12.44;71.03
19811;BME280;10065;49.632;8.346;2023-03-22T00:15:47;100373.94;;;12.47;70.86
19811;BME280;10065;49.632;8.346;2023-03-22T00:18:16;100370.28;;;12.48;71.16
19811;BME280;10065;49.632;8.346;2023-03-22T00:20:47;100353.66;;;12.54;70.67
19811;BME280;10065;49.632;8.346;2023-03-22T00:23:17;100369.09;;;12.50;70.81
19811;BME280;10065;49.632;8.346;2023-03-22T00:25:46;100365.97;;;12.47;70.87
19811;BME280;10065;49.632;8.346;2023-03-22T00:28:14;100362.94;;;12.41;71.12
19811;BME280;10065;49.632;8.346;2023-03-22T00:30:49;100364.13;;;12.39;71.08
19811;BME280;10065;49.632;8.346;2023-03-22T00:33:17;100358.13;;;12.45;70.72
19811;BME280;10065;49.632;8.346;2023-03-22T00:35:47;100357.63;;;12.41;70.85
19811;BME280;10065;49.632;8.346;2023-03-22T00:38:17;100354.97;;;12.50;70.61
19811;BME280;10065;49.632;8.346;2023-03-22T00:40:47;100359.66;;;12.56;70.41
19811;BME280;10065;49.632;8.346;2023-03-22T00:43:15;100374.13;;;12.61;70.06
19811;BME280;10065;49.632;8.346;2023-03-22T00:45:42;100352.69;;;12.71;70.08
19811;BME280;10065;49.632;8.346;2023-03-22T00:48:10;100346.06;;;12.75;70.15
19811;BME280;10065;49.632;8.346;2023-03-22T00:50:39;100350.03;;;12.79;71.08
19811;BME280;10065;49.632;8.346;2023-03-22T00:53:07;100349.22;;;12.78;71.30
19811;BME280;10065;49.632;8.346;2023-03-22T00:55:36;100350.19;;;12.69;71.86
19811;BME280;10065;49.632;8.346;2023-03-22T00:58:03;100339.38;;;12.71;71.97
19811;BME280;10065;49.632;8.346;2023-03-22T01:00:31;100332.06;;;12.65;72.93
19811;BME280;10065;49.632;8.346;2023-03-22T01:02:59;100335.72;;;12.64;73.15
19811;BME280;10065;49.632;8.346;2023-03-22T01:05:30;100328.06;;;12.69;72.79
19811;BME280;10065;49.632;8.346;2023-03-22T01:07:59;100329.75;;;12.70;72.84
19811;BME280;10065;49.632;8.346;2023-03-22T01:10:28;100324.59;;;12.68;72.56
19811;BME280;10065;49.632;8.346;2023-03-22T01:12:57;100325.78;;;12.74;71.96
19811;BME280;10065;49.632;8.346;2023-03-22T01:15:24;100326.09;;;12.71;70.83
19811;BME280;10065;49.632;8.346;2023-03-22T01:17:52;100323.06;;;12.58;70.70
19811;BME280;10065;49.632;8.346;2023-03-22T01:20:20;100312.41;;;12.50;72.02
19811;BME280;10065;49.632;8.346;2023-03-22T01:22:48;100316.75;;;12.59;72.06
19811;BME280;10065;49.632;8.346;2023-03-22T01:25:16;100311.13;;;12.62;71.12
19811;BME280;10065;49.632;8.346;2023-03-22T01:27:44;100309.63;;;12.67;70.42
19811;BME280;10065;49.632;8.346;2023-03-22T01:30:13;100306.13;;;12.59;70.48
19811;BME280;10065;49.632;8.346;2023-03-22T01:32:41;100310.28;;;12.53;70.46
19811;BME280;10065;49.632;8.346;2023-03-22T01:35:09;100302.47;;;12.52;70.40
19811;BME280;10065;49.632;8.346;2023-03-22T01:37:37;100310.44;;;12.43;70.86
19811;BME280;10065;49.632;8.346;2023-03-22T01:40:06;100307.09;;;12.33;71.36
19811;BME280;10065;49.632;8.346;2023-03-22T01:42:34;100301.41;;;12.20;72.32
19811;BME280;10065;49.632;8.346;2023-03-22T01:45:34;100301.41;;;12.20;72.31
19811;BME280;10065;49.632;8.346;2023-03-22T01:48:07;100312.75;;;12.30;71.95
19811;BME280;10065;49.632;8.346;2023-03-22T01:50:37;100310.72;;;12.32;71.43
19811;BME280;10065;49.632;8.346;2023-03-22T01:53:10;100306.09;;;12.34;71.26
19811;BME280;10065;49.632;8.346;2023-03-22T01:55:39;100308.06;;;12.32;71.48
19811;BME280;10065;49.632;8.346;2023-03-22T01:58:07;100302.59;;;12.34;71.35
19811;BME280;10065;49.632;8.346;2023-03-22T02:00:37;100297.78;;;12.37;71.10
19811;BME280;10065;49.632;8.346;2023-03-22T02:03:05;100299.44;;;12.30;71.47
19811;BME280;10065;49.632;8.346;2023-03-22T02:05:33;100291.09;;;12.17;71.90
19811;BME280;10065;49.632;8.346;2023-03-22T02:08:03;100298.06;;;12.10;72.30
19811;BME280;10065;49.632;8.346;2023-03-22T02:10:30;100308.19;;;12.15;72.56
19811;BME280;10065;49.632;8.346;2023-03-22T02:13:09;100303.09;;;12.21;72.82
19811;BME280;10065;49.632;8.346;2023-03-22T02:16:04;100307.09;;;12.33;72.40
19811;BME280;10065;49.632;8.346;2023-03-22T02:18:44;100306.09;;;12.42;71.47
19811;BME280;10065;49.632;8.346;2023-03-22T02:21:34;100297.44;;;12.40;71.68
19811;BME280;10065;49.632;8.346;2023-03-22T02:27:34;100288.81;;;12.38;71.71
19811;BME280;10065;49.632;8.346;2023-03-22T02:30:20;100283.50;;;12.38;71.95
19811;BME280;10065;49.632;8.346;2023-03-22T02:33:23;100283.69;;;12.45;71.71
19811;BME280;10065;49.632;8.346;2023-03-22T02:36:09;100290.50;;;12.48;71.28
19811;BME280;10065;49.632;8.346;2023-03-22T02:39:06;100293.47;;;12.44;71.48
19811;BME280;10065;49.632;8.346;2023-03-22T02:41:55;100287.00;;;12.47;72.26
19811;BME280;10065;49.632;8.346;2023-03-22T02:44:37;100282.16;;;12.51;72.04
19811;BME280;10065;49.632;8.346;2023-03-22T02:47:12;100284.00;;;12.58;71.52
19811;BME280;10065;49.632;8.346;2023-03-22T02:49:45;100285.88;;;12.66;71.05
19811;BME280;10065;49.632;8.346;2023-03-22T02:52:21;100277.53;;;12.61;70.92
19811;BME280;10065;49.632;8.346;2023-03-22T02:54:55;100277.22;;;12.56;71.29
19811;BME280;10065;49.632;8.346;2023-03-22T02:57:31;100275.53;;;12.55;71.26
19811;BME280;10065;49.632;8.346;2023-03-22T03:00:00;100273.72;;;12.47;71.15
19811;BME280;10065;49.632;8.346;2023-03-22T03:02:34;100274.53;;;12.48;71.79
19811;BME280;10065;49.632;8.346;2023-03-22T03:05:02;100271.53;;;12.42;71.47
19811;BME280;10065;49.632;8.346;2023-03-22T03:07:30;100267.19;;;12.41;71.39
19811;BME280;10065;49.632;8.346;2023-03-22T03:09:59;100270.53;;;12.35;71.78
19811;BME280;10065;49.632;8.346;2023-03-22T03:12:27;100271.53;;;12.34;71.87
19811;BME280;10065;49.632;8.346;2023-03-22T03:14:56;100263.22;;;12.37;71.82
19811;BME280;10065;49.632;8.346;2023-03-22T03:17:33;100274.69;;;12.30;71.80
19811;BME280;10065;49.632;8.346;2023-03-22T03:20:23;100263.22;;;12.29;71.93
19811;BME280;10065;49.632;8.346;2023-03-22T03:23:11;100261.03;;;12.25;72.53
19811;BME280;10065;49.632;8.346;2023-03-22T03:25:45;100259.56;;;12.30;72.35
19811;BME280;10065;49.632;8.346;2023-03-22T03:28:19;100254.88;;;12.24;72.15
19811;BME280;10065;49.632;8.346;2023-03-22T03:30:58;100256.22;;;12.12;72.87
19811;BME280;10065;49.632;8.346;2023-03-22T03:33:28;100250.38;;;12.09;73.03
19811;BME280;10065;49.632;8.346;2023-03-22T03:36:02;100248.56;;;12.09;72.70
19811;BME280;10065;49.632;8.346;2023-03-22T03:38:34;100255.38;;;12.03;73.26
19811;BME280;10065;49.632;8.346;2023-03-22T03:41:07;100252.50;;;11.97;73.40
19811;BME280;10065;49.632;8.346;2023-03-22T03:43:37;100245.34;;;11.89;73.82
19811;BME280;10065;49.632;8.346;2023-03-22T03:46:06;100247.84;;;11.91;73.73
19811;BME280;10065;49.632;8.346;2023-03-22T03:48:36;100248.34;;;11.86;73.79
19811;BME280;10065;49.632;8.346;2023-03-22T03:51:05;100243.66;;;11.80;73.89
19811;BME280;10065;49.632;8.346;2023-03-22T03:53:33;100247.91;;;11.73;74.39
19811;BME280;10065;49.632;8.346;2023-03-22T03:56:01;100253.06;;;11.66;74.82
19811;BME280;10065;49.632;8.346;2023-03-22T03:58:30;100254.16;;;11.56;75.10
19811;BME280;10065;49.632;8.346;2023-03-22T04:00:57;100244.69;;;11.53;75.50
19811;BME280;10065;49.632;8.346;2023-03-22T04:03:25;100248.66;;;11.49;75.70
19811;BME280;10065;49.632;8.346;2023-03-22T04:05:53;100246.31;;;11.46;76.13
19811;BME280;10065;49.632;8.346;2023-03-22T04:08:21;100245.47;;;11.46;75.74
19811;BME280;10065;49.632;8.346;2023-03-22T04:10:49;100247.00;;;11.48;75.87
19811;BME280;10065;49.632;8.346;2023-03-22T04:13:17;100239.06;;;11.56;75.52
19811;BME280;10065;49.632;8.346;2023-03-22T04:15:51;100235.91;;;11.61;75.06
19811;BME280;10065;49.632;8.346;2023-03-22T04:18:19;100239.06;;;11.56;75.05
19811;BME280;10065;49.632;8.346;2023-03-22T04:20:47;100236.25;;;11.58;75.14
19811;BME280;10065;49.632;8.346;2023-03-22T04:23:18;100233.72;;;11.48;75.50
19811;BME280;10065;49.632;8.346;2023-03-22T04:25:48;100225.56;;;11.42;76.03
19811;BME280;10065;49.632;8.346;2023-03-22T04:28:16;100222.13;;;11.49;75.88
19811;BME280;10065;49.632;8.346;2023-03-22T04:30:45;100225.25;;;11.53;75.57
19811;BME280;10065;49.632;8.346;2023-03-22T04:33:18;100215.34;;;11.63;74.79
19811;BME280;10065;49.632;8.346;2023-03-22T04:35:48;100207.50;;;11.53;75.10
19811;BME280;10065;49.632;8.346;2023-03-22T04:38:22;100216.13;;;11.47;75.55
19811;BME280;10065;49.632;8.346;2023-03-22T04:40:50;100209.81;;;11.48;75.52
19811;BME280;10065;49.632;8.346;2023-03-22T04:43:20;100218.25;;;11.44;75.64
19811;BME280;10065;49.632;8.346;2023-03-22T04:45:48;100208.59;;;11.35;76.13
19811;BME280;10065;49.632;8.346;2023-03-22T04:48:17;100214.44;;;11.38;76.25
19811;BME280;10065;49.632;8.346;2023-03-22T04:50:47;100211.09;;;11.36;76.22
19811;BME280;10065;49.632;8.346;2023-03-22T04:53:18;100207.44;;;11.37;75.79
19811;BME280;10065;49.632;8.346;2023-03-22T04:55:52;100202.28;;;11.36;75.40
19811;BME280;10065;49.632;8.346;2023-03-22T04:58:22;100204.47;;;11.32;75.58
19811;BME280;10065;49.632;8.346;2023-03-22T05:00:51;100204.41;;;11.24;75.70
19811;BME280;10065;49.632;8.346;2023-03-22T05:03:20;100216.66;;;11.17;76.23
19811;BME280;10065;49.632;8.346;2023-03-22T05:05:50;100220.91;;;11.10;76.55
19811;BME280;10065;49.632;8.346;2023-03-22T05:08:18;100217.28;;;11.11;76.60
19811;BME280;10065;49.632;8.346;2023-03-22T05:10:46;100221.91;;;11.09;76.47
19811;BME280;10065;49.632;8.346;2023-03-22T05:13:14;100224.25;;;11.12;76.31
19811;BME280;10065;49.632;8.346;2023-03-22T05:15:42;100227.88;;;11.11;76.26
19811;BME280;10065;49.632;8.346;2023-03-22T05:18:09;100225.56;;;11.08;76.34
19811;BME280;10065;49.632;8.346;2023-03-22T05:20:41;100225.03;;;11.04;76.34
19811;BME280;10065;49.632;8.346;2023-03-22T05:23:09;100226.81;;;10.96;76.53
19811;BME280;10065;49.632;8.346;2023-03-22T05:25:37;100230.94;;;10.90;77.05
19811;BME280;10065;49.632;8.346;2023-03-22T05:28:05;100229.75;;;10.92;76.43
19811;BME280;10065;49.632;8.346;2023-03-22T05:30:32;100234.25;;;10.92;76.71
19811;BME280;10065;49.632;8.346;2023-03-22T05:33:02;100235.41;;;10.89;76.60
19811;BME280;10065;49.632;8.346;2023-03-22T05:35:31;100239.03;;;10.88;76.31
19811;BME280;10065;49.632;8.346;2023-03-22T05:38:01;100237.06;;;10.90;75.96
19811;BME280;10065;49.632;8.346;2023-03-22T05:40:29;100242.25;;;11.00;75.86
19811;BME280;10065;49.632;8.346;2023-03-22T05:42:57;100245.59;;;11.02;75.86
19811;BME280;10065;49.632;8.346;2023-03-22T05:45:25;100247.41;;;11.02;76.17
19811;BME280;10065;49.632;8.346;2023-03-22T05:47:53;100240.81;;;11.06;75.81
19811;BME280;10065;49.632;8.346;2023-03-22T05:50:22;100245.19;;;11.15;75.01
19811;BME280;10065;49.632;8.346;2023-03-22T05:52:49;100248.81;;;11.14;74.98
19811;BME280;10065;49.632;8.346;2023-03-22T05:55:20;100243.69;;;11.20;74.75
19811;BME280;10065;49.632;8.346;2023-03-22T05:57:48;100242.56;;;11.23;74.16
19811;BME280;10065;49.632;8.346;2023-03-22T06:00:19;100231.56;;;11.18;73.93
19811;BME280;10065;49.632;8.346;2023-03-22T06:02:48;100237.16;;;11.07;74.53
19811;BME280;10065;49.632;8.346;2023-03-22T06:05:17;100245.22;;;10.97;74.97
19811;BME280;10065;49.632;8.346;2023-03-22T06:07:46;100240.28;;;11.02;74.64
19811;BME280;10065;49.632;8.346;2023-03-22T06:10:14;100242.72;;;10.96;74.68
19811;BME280;10065;49.632;8.346;2023-03-22T06:12:44;100241.63;;;10.80;75.38
19811;BME280;10065;49.632;8.346;2023-03-22T06:15:12;100233.78;;;10.71;75.84
19811;BME280;10065;49.632;8.346;2023-03-22T06:17:39;100233.09;;;10.69;76.44
19811;BME280;10065;49.632;8.346;2023-03-22T06:20:10;100224.97;;;10.70;76.13
19811;BME280;10065;49.632;8.346;2023-03-22T06:22:39;100222.78;;;10.66;76.29
19811;BME280;10065;49.632;8.346;2023-03-22T06:25:08;100233.88;;;10.61;76.43
19811;BME280;10065;49.632;8.346;2023-03-22T06:27:36;100245.44;;;10.60;76.73
19811;BME280;10065;49.632;8.346;2023-03-22T06:30:07;100248.41;;;10.57;76.92
19811;BME280;10065;49.632;8.346;2023-03-22T06:32:35;100251.75;;;10.59;76.85
19811;BME280;10065;49.632;8.346;2023-03-22T06:35:04;100250.47;;;10.63;76.78
19811;BME280;10065;49.632;8.346;2023-03-22T06:37:32;100247.81;;;10.63;76.71
19811;BME280;10065;49.632;8.346;2023-03-22T06:40:00;100255.75;;;10.63;76.96
19811;BME280;10065;49.632;8.346;2023-03-22T06:42:27;100251.81;;;10.67;76.88
19811;BME280;10065;49.632;8.346;2023-03-22T06:44:56;100252.50;;;10.69;76.83
19811;BME280;10065;49.632;8.346;2023-03-22T06:47:25;100253.69;;;10.75;76.79
19811;BME280;10065;49.632;8.346;2023-03-22T06:49:53;100257.03;;;10.77;76.58
19811;BME280;10065;49.632;8.346;2023-03-22T06:52:21;100261.53;;;10.84;76.12
19811;BME280;10065;49.632;8.346;2023-03-22T06:54:48;100256.44;;;10.91;76.04
19811;BME280;10065;49.632;8.346;2023-03-22T06:57:16;100260.06;;;11.08;75.71
19811;BME280;10065;49.632;8.346;2023-03-22T06:59:44;100261.09;;;11.15;75.19
19811;BME280;10065;49.632;8.346;2023-03-22T07:02:12;100257.47;;;11.16;75.25
19811;BME280;10065;49.632;8.346;2023-03-22T07:04:42;100264.09;;;11.20;75.31
19811;BME280;10065;49.632;8.346;2023-03-22T07:07:10;100265.47;;;11.24;75.07
19811;BME280;10065;49.632;8.346;2023-03-22T07:09:38;100267.53;;;11.38;74.62
19811;BME280;10065;49.632;8.346;2023-03-22T07:12:06;100263.56;;;11.42;74.39
19811;BME280;10065;49.632;8.346;2023-03-22T07:14:34;100269.72;;;11.43;74.35
19811;BME280;10065;49.632;8.346;2023-03-22T07:17:02;100263.47;;;11.52;74.38
19811;BME280;10065;49.632;8.346;2023-03-22T07:19:30;100268.59;;;11.53;74.01
19811;BME280;10065;49.632;8.346;2023-03-22T07:21:59;100263.69;;;11.66;74.06
19811;BME280;10065;49.632;8.346;2023-03-22T07:24:27;100269.88;;;11.75;73.80
19811;BME280;10065;49.632;8.346;2023-03-22T07:26:54;100272.44;;;11.93;73.11
19811;BME280;10065;49.632;8.346;2023-03-22T07:29:22;100269.00;;;12.17;72.11
19811;BME280;10065;49.632;8.346;2023-03-22T07:31:50;100265.53;;;12.24;71.91
19811;BME280;10065;49.632;8.346;2023-03-22T07:34:18;100267.19;;;12.25;71.86
19811;BME280;10065;49.632;8.346;2023-03-22T07:36:46;100262.72;;;12.42;71.73
19811;BME280;10065;49.632;8.346;2023-03-22T07:39:15;100264.56;;;12.50;71.71
19811;BME280;10065;49.632;8.346;2023-03-22T07:41:42;100257.09;;;12.61;71.21
19811;BME280;10065;49.632;8.346;2023-03-22T07:44:10;100260.25;;;12.73;70.99
19811;BME280;10065;49.632;8.346;2023-03-22T07:46:44;100262.75;;;12.74;70.85
19811;BME280;10065;49.632;8.346;2023-03-22T07:49:13;100254.25;;;12.79;71.01
19811;BME280;10065;49.632;8.346;2023-03-22T07:51:41;100254.75;;;12.91;70.76
19811;BME280;10065;49.632;8.346;2023-03-22T07:54:08;100249.56;;;13.05;70.58
19811;BME280;10065;49.632;8.346;2023-03-22T07:56:44;100253.06;;;13.14;69.90
19811;BME280;10065;49.632;8.346;2023-03-22T07:59:13;100255.69;;;13.30;69.98
19811;BME280;10065;49.632;8.346;2023-03-22T08:01:42;100243.97;;;13.47;69.27
19811;BME280;10065;49.632;8.346;2023-03-22T08:04:10;100248.75;;;13.60;68.88
19811;BME280;10065;49.632;8.346;2023-03-22T08:06:38;100245.94;;;13.62;69.34
19811;BME280;10065;49.632;8.346;2023-03-22T08:09:08;100247.97;;;13.82;68.93
19811;BME280;10065;49.632;8.346;2023-03-22T08:11:35;100253.22;;;13.99;68.78
19811;BME280;10065;49.632;8.346;2023-03-22T08:14:05;100244.66;;;14.11;68.25
19811;BME280;10065;49.632;8.346;2023-03-22T08:16:32;100240.50;;;14.40;66.63
19811;BME280;10065;49.632;8.346;2023-03-22T08:19:00;100247.97;;;14.44;65.92
19811;BME280;10065;49.632;8.346;2023-03-22T08:21:28;100251.31;;;14.61;65.41
19811;BME280;10065;49.632;8.346;2023-03-22T08:23:56;100245.59;;;14.87;65.45
19811;BME280;10065;49.632;8.346;2023-03-22T08:26:24;100244.00;;;15.30;64.32
19811;BME280;10065;49.632;8.346;2023-03-22T08:28:52;100234.16;;;15.60;63.21
19811;BME280;10065;49.632;8.346;2023-03-22T08:31:21;100237.22;;;16.50;60.89
19811;BME280;10065;49.632;8.346;2023-03-22T08:33:49;100232.69;;;18.42;53.87
19811;BME280;10065;49.632;8.346;2023-03-22T08:36:19;100238.72;;;19.24;50.47
19811;BME280;10065;49.632;8.346;2023-03-22T08:38:48;100238.50;;;19.18;48.00
19811;BME280;10065;49.632;8.346;2023-03-22T08:41:16;100236.06;;;18.77;47.43
19811;BME280;10065;49.632;8.346;2023-03-22T08:43:43;100228.94;;;18.17;49.32
19811;BME280;10065;49.632;8.346;2023-03-22T08:46:11;100230.66;;;17.71;49.39
19811;BME280;10065;49.632;8.346;2023-03-22T08:48:40;100229.78;;;17.22;50.81
19811;BME280;10065;49.632;8.346;2023-03-22T08:51:16;100230.88;;;16.58;52.66
19811;BME280;10065;49.632;8.346;2023-03-22T08:53:44;100233.78;;;16.35;52.69
19811;BME280;10065;49.632;8.346;2023-03-22T08:56:12;100233.63;;;16.22;53.25
19811;BME280;10065;49.632;8.346;2023-03-22T08:58:42;100220.31;;;16.28;53.13
19811;BME280;10065;49.632;8.346;2023-03-22T09:01:12;100221.41;;;16.34;53.62
19811;BME280;10065;49.632;8.346;2023-03-22T09:03:42;100215.16;;;16.48;53.19
19811;BME280;10065;49.632;8.346;2023-03-22T09:06:10;100219.47;;;16.98;52.81
19811;BME280;10065;49.632;8.346;2023-03-22T09:08:38;100208.59;;;17.00;52.41
19811;BME280;10065;49.632;8.346;2023-03-22T09:11:08;100212.13;;;17.82;51.73
19811;BME280;10065;49.632;8.346;2023-03-22T09:13:36;100202.78;;;18.59;49.64
19811;BME280;10065;49.632;8.346;2023-03-22T09:16:05;100200.72;;;18.87;47.76
19811;BME280;10065;49.632;8.346;2023-03-22T09:18:35;100192.13;;;20.82;44.34
19811;BME280;10065;49.632;8.346;2023-03-22T09:21:05;100184.69;;;21.38;42.07
19811;BME280;10065;49.632;8.346;2023-03-22T09:23:34;100193.28;;;22.55;41.16
19811;BME280;10065;49.632;8.346;2023-03-22T09:26:05;100176.81;;;24.07;38.67
19811;BME280;10065;49.632;8.346;2023-03-22T09:28:36;100177.28;;;25.37;35.44
19811;BME280;10065;49.632;8.346;2023-03-22T09:31:06;100174.19;;;25.29;34.65
19811;BME280;10065;49.632;8.346;2023-03-22T09:33:38;100187.50;;;23.56;36.89
19811;BME280;10065;49.632;8.346;2023-03-22T09:36:08;100185.97;;;22.44;38.98
19811;BME280;10065;49.632;8.346;2023-03-22T09:38:37;100179.81;;;21.65;41.10
19811;BME280;10065;49.632;8.346;2023-03-22T09:41:11;100180.88;;;21.10;42.29
19811;BME280;10065;49.632;8.346;2023-03-22T09:43:43;100174.41;;;20.43;43.58
19811;BME280;10065;49.632;8.346;2023-03-22T09:46:14;100179.16;;;20.47;43.56
19811;BME280;10065;49.632;8.346;2023-03-22T09:48:45;100158.00;;;20.76;43.13
19811;BME280;10065;49.632;8.346;2023-03-22T09:51:27;100165.41;;;20.24;43.23
19811;BME280;10065;49.632;8.346;2023-03-22T09:53:55;100153.44;;;19.50;44.30
19811;BME280;10065;49.632;8.346;2023-03-22T09:56:26;100161.13;;;19.85;43.69
19811;BME280;10065;49.632;8.346;2023-03-22T09:58:58;100155.59;;;20.86;41.53
19811;BME280;10065;49.632;8.346;2023-03-22T10:01:38;100150.72;;;22.39;38.66
19811;BME280;10065;49.632;8.346;2023-03-22T10:04:27;100144.59;;;23.77;36.35
19811;BME280;10065;49.632;8.346;2023-03-22T10:07:05;100132.56;;;23.56;35.89
19811;BME280;10065;49.632;8.346;2023-03-22T10:09:44;100134.81;;;23.47;35.86
19811;BME280;10065;49.632;8.346;2023-03-22T10:12:20;100129.69;;;25.30;33.18
19811;BME280;10065;49.632;8.346;2023-03-22T10:15:00;100126.56;;;27.34;30.20
19811;BME280;10065;49.632;8.346;2023-03-22T10:17:30;100122.34;;;27.79;30.05
19811;BME280;10065;49.632;8.346;2023-03-22T10:20:00;100128.94;;;28.49;28.65
19811;BME280;10065;49.632;8.346;2023-03-22T10:22:35;100121.88;;;29.92;26.78
19811;BME280;10065;49.632;8.346;2023-03-22T10:25:06;100122.22;;;31.06;25.40
19811;BME280;10065;49.632;8.346;2023-03-22T10:27:35;100107.78;;;33.38;23.28
19811;BME280;10065;49.632;8.346;2023-03-22T10:30:11;100112.13;;;34.47;21.73
19811;BME280;10065;49.632;8.346;2023-03-22T10:32:49;100119.16;;;34.61;21.75
19811;BME280;10065;49.632;8.346;2023-03-22T10:35:23;100115.53;;;33.85;21.56
19811;BME280;10065;49.632;8.346;2023-03-22T10:37:55;100111.66;;;33.09;22.62
19811;BME280;10065;49.632;8.346;2023-03-22T10:40:26;100111.97;;;32.48;23.00
19811;BME280;10065;49.632;8.346;2023-03-22T10:42:58;100096.81;;;32.83;22.42
19811;BME280;10065;49.632;8.346;2023-03-22T10:45:44;100116.25;;;31.28;24.16
19811;BME280;10065;49.632;8.346;2023-03-22T10:48:16;100107.84;;;30.38;24.41
19811;BME280;10065;49.632;8.346;2023-03-22T10:50:52;100109.06;;;30.84;24.92
19811;BME280;10065;49.632;8.346;2023-03-22T10:53:29;100106.63;;;29.86;25.07
19811;BME280;10065;49.632;8.346;2023-03-22T10:55:59;100101.09;;;29.96;25.34
19811;BME280;10065;49.632;8.346;2023-03-22T10:58:29;100094.66;;;29.28;25.51
19811;BME280;10065;49.632;8.346;2023-03-22T11:00:58;100097.59;;;27.08;28.38
19811;BME280;10065;49.632;8.346;2023-03-22T11:03:29;100106.84;;;26.28;29.35
19811;BME280;10065;49.632;8.346;2023-03-22T11:06:03;100104.44;;;25.29;31.14
19811;BME280;10065;49.632;8.346;2023-03-22T11:08:39;100108.22;;;24.01;32.44
19811;BME280;10065;49.632;8.346;2023-03-22T11:11:15;100098.16;;;23.85;33.11
19811;BME280;10065;49.632;8.346;2023-03-22T11:13:49;100099.13;;;25.88;30.14
19811;BME280;10065;49.632;8.346;2023-03-22T11:16:17;100081.38;;;27.44;28.35
19811;BME280;10065;49.632;8.346;2023-03-22T11:18:45;100083.25;;;29.10;26.88
19811;BME280;10065;49.632;8.346;2023-03-22T11:21:15;100074.59;;;29.97;25.62
19811;BME280;10065;49.632;8.346;2023-03-22T11:23:51;100072.94;;;31.86;23.10
19811;BME280;10065;49.632;8.346;2023-03-22T11:26:30;100071.69;;;33.67;21.44
19811;BME280;10065;49.632;8.346;2023-03-22T11:29:09;100070.03;;;34.55;20.76
19811;BME280;10065;49.632;8.346;2023-03-22T11:31:50;100062.00;;;35.06;20.14
19811;BME280;10065;49.632;8.346;2023-03-22T11:34:23;100069.16;;;32.79;22.00
19811;BME280;10065;49.632;8.346;2023-03-22T11:36:52;100050.22;;;33.05;21.61
19811;BME280;10065;49.632;8.346;2023-03-22T11:39:26;100036.50;;;33.55;20.78
19811;BME280;10065;49.632;8.346;2023-03-22T11:41:58;100052.16;;;34.75;20.29
19811;BME280;10065;49.632;8.346;2023-03-22T11:44:31;100048.09;;;34.72;20.09
19811;BME280;10065;49.632;8.346;2023-03-22T11:47:03;100043.72;;;34.71;20.80
19811;BME280;10065;49.632;8.346;2023-03-22T11:49:39;100042.13;;;33.72;21.54
19811;BME280;10065;49.632;8.346;2023-03-22T11:52:13;100038.06;;;33.34;21.93
19811;BME280;10065;49.632;8.346;2023-03-22T11:54:45;100044.22;;;32.76;21.98
19811;BME280;10065;49.632;8.346;2023-03-22T11:57:16;100042.72;;;32.70;23.00
19811;BME280;10065;49.632;8.346;2023-03-22T11:59:48;100043.31;;;32.21;23.37
19811;BME280;10065;49.632;8.346;2023-03-22T12:02:22;100037.47;;;31.20;24.22
19811;BME280;10065;49.632;8.346;2023-03-22T12:04:56;100044.19;;;30.61;24.30
19811;BME280;10065;49.632;8.346;2023-03-22T12:07:28;100029.81;;;30.74;24.19
19811;BME280;10065;49.632;8.346;2023-03-22T12:10:02;100023.88;;;30.67;24.13
19811;BME280;10065;49.632;8.346;2023-03-22T12:12:34;100021.97;;;30.10;24.63
19811;BME280;10065;49.632;8.346;2023-03-22T12:15:06;100023.41;;;29.68;25.35
19811;BME280;10065;49.632;8.346;2023-03-22T12:17:37;100017.16;;;28.39;25.72
19811;BME280;10065;49.632;8.346;2023-03-22T12:20:15;100005.75;;;27.76;27.19
19811;BME280;10065;49.632;8.346;2023-03-22T12:22:47;100009.16;;;27.16;27.53
19811;BME280;10065;49.632;8.346;2023-03-22T12:25:24;100015.25;;;27.58;27.83
19811;BME280;10065;49.632;8.346;2023-03-22T12:27:55;100004.94;;;28.21;27.11
19811;BME280;10065;49.632;8.346;2023-03-22T12:30:25;100005.59;;;28.83;25.81
19811;BME280;10065;49.632;8.346;2023-03-22T12:32:58;99994.69;;;28.72;26.08
19811;BME280;10065;49.632;8.346;2023-03-22T12:35:30;99984.72;;;27.51;25.57
19811;BME280;10065;49.632;8.346;2023-03-22T12:38:06;100004.66;;;26.27;26.60
19811;BME280;10065;49.632;8.346;2023-03-22T12:40:39;100006.78;;;25.34;27.84
19811;BME280;10065;49.632;8.346;2023-03-22T12:43:12;99995.13;;;24.85;28.61
19811;BME280;10065;49.632;8.346;2023-03-22T12:45:45;99998.88;;;24.41;29.52
19811;BME280;10065;49.632;8.346;2023-03-22T12:48:18;99998.75;;;23.80;29.91
19811;BME280;10065;49.632;8.346;2023-03-22T12:50:49;99992.84;;;23.10;30.51
19811;BME280;10065;49.632;8.346;2023-03-22T12:53:20;99992.88;;;22.46;30.71
19811;BME280;10065;49.632;8.346;2023-03-22T12:55:51;99993.81;;;22.29;31.55
19811;BME280;10065;49.632;8.346;2023-03-22T12:58:21;99993.56;;;21.95;31.93
19811;BME280;10065;49.632;8.346;2023-03-22T13:00:52;99989.34;;;21.88;32.61
19811;BME280;10065;49.632;8.346;2023-03-22T13:03:25;99989.50;;;21.51;33.23
19811;BME280;10065;49.632;8.346;2023-03-22T13:06:06;99985.06;;;21.57;33.90
19811;BME280;10065;49.632;8.346;2023-03-22T13:11:43;99982.84;;;21.54;33.28
19811;BME280;10065;49.632;8.346;2023-03-22T13:17:39;99980.63;;;21.74;32.76
19811;BME280;10065;49.632;8.346;2023-03-22T13:20:27;99967.38;;;21.84;33.13